Saint Hilaire, Minnesota
Current Conditions -  °F | °C
As of 6:55 PM on Wednesday 22 Oct 2014 (Local Time) from KTVF Reporting Station
Overcast Overcast  
Wind Chill: 14°   Ceiling: 5000
Heat Index: 14°   Visibility: 10mi
Dew Point:   Wind: 16mph
Humidity: 72%   Direction: 190°S
Pressure: 29.84"   Gusts: NA
Location:  48.01°N, 96.21°W
Report Text: KTVF 222355Z AUTO 19014KT 10SM SCT039 BKN050 OVC055 14/09 A2984 RMK AO1 10170 20140 401700110 52003
Loading
Personal Weather Stations






























Interactive Weather Map
Tropical Storm Tracking
New forecast layout! Learn more

10-Day Weather Forecast

Advertisements
Track Severe Weather on mobile